sensor_id;sensor_type;location;lat;lon;timestamp;pressure;altitude;pressure_sealevel;temperature;humidity
74637;BME280;63141;54.616;39.754;2022-12-11T00:02:00;99364.09;;;22.81;26.90
74637;BME280;63141;54.616;39.754;2022-12-11T00:05:04;99369.53;;;22.79;27.05
74637;BME280;63141;54.616;39.754;2022-12-11T00:08:06;99367.78;;;22.78;26.78
74637;BME280;63141;54.616;39.754;2022-12-11T00:11:10;99368.75;;;22.77;26.94
74637;BME280;63141;54.616;39.754;2022-12-11T00:14:13;99371.41;;;22.77;26.87
74637;BME280;63141;54.616;39.754;2022-12-11T00:17:15;99369.66;;;22.76;26.93
74637;BME280;63141;54.616;39.754;2022-12-11T00:20:16;99366.16;;;22.76;26.97
74637;BME280;63141;54.616;39.754;2022-12-11T00:23:17;99360.06;;;22.74;27.02
74637;BME280;63141;54.616;39.754;2022-12-11T00:26:19;99360.06;;;22.74;27.03
74637;BME280;63141;54.616;39.754;2022-12-11T00:29:20;99354.78;;;22.74;26.82
74637;BME280;63141;54.616;39.754;2022-12-11T00:32:22;99359.22;;;22.73;26.74
74637;BME280;63141;54.616;39.754;2022-12-11T00:35:23;99364.53;;;22.73;26.85
74637;BME280;63141;54.616;39.754;2022-12-11T00:38:24;99365.38;;;22.74;26.85
74637;BME280;63141;54.616;39.754;2022-12-11T00:41:26;99364.53;;;22.73;26.82
74637;BME280;63141;54.616;39.754;2022-12-11T00:44:27;99365.56;;;22.71;26.90
74637;BME280;63141;54.616;39.754;2022-12-11T00:47:28;99364.59;;;22.72;26.87
74637;BME280;63141;54.616;39.754;2022-12-11T00:50:30;99356.66;;;22.72;26.86
74637;BME280;63141;54.616;39.754;2022-12-11T00:53:31;99360.25;;;22.71;26.78
74637;BME280;63141;54.616;39.754;2022-12-11T00:56:33;99354.94;;;22.71;26.83
74637;BME280;63141;54.616;39.754;2022-12-11T00:59:34;99349.63;;;22.71;26.68
74637;BME280;63141;54.616;39.754;2022-12-11T01:02:36;99353.22;;;22.70;26.78
74637;BME280;63141;54.616;39.754;2022-12-11T01:05:50;99355.03;;;22.69;26.74
74637;BME280;63141;54.616;39.754;2022-12-11T01:08:53;99351.50;;;22.69;26.88
74637;BME280;63141;54.616;39.754;2022-12-11T01:12:13;99358.53;;;22.70;26.81
74637;BME280;63141;54.616;39.754;2022-12-11T01:15:14;99352.47;;;22.68;26.76
74637;BME280;63141;54.616;39.754;2022-12-11T01:18:16;99367.44;;;22.69;26.81
74637;BME280;63141;54.616;39.754;2022-12-11T01:21:18;99365.75;;;22.68;26.87
74637;BME280;63141;54.616;39.754;2022-12-11T01:24:19;99376.34;;;22.68;26.78
74637;BME280;63141;54.616;39.754;2022-12-11T01:27:21;99371.91;;;22.68;26.78
74637;BME280;63141;54.616;39.754;2022-12-11T01:30:25;99374.63;;;22.67;26.95
74637;BME280;63141;54.616;39.754;2022-12-11T01:33:27;99373.72;;;22.68;26.85
74637;BME280;63141;54.616;39.754;2022-12-11T01:36:32;99368.47;;;22.66;26.75
74637;BME280;63141;54.616;39.754;2022-12-11T01:39:33;99373.78;;;22.66;26.87
74637;BME280;63141;54.616;39.754;2022-12-11T01:42:36;99378.22;;;22.66;26.75
74637;BME280;63141;54.616;39.754;2022-12-11T01:45:42;99375.59;;;22.66;26.86
74637;BME280;63141;54.616;39.754;2022-12-11T01:48:44;99381.81;;;22.65;26.57
74637;BME280;63141;54.616;39.754;2022-12-11T01:51:56;99379.16;;;22.65;26.86
74637;BME280;63141;54.616;39.754;2022-12-11T01:55:00;99377.47;;;22.64;26.75
74637;BME280;63141;54.616;39.754;2022-12-11T01:58:01;99379.16;;;22.65;26.82
74637;BME280;63141;54.616;39.754;2022-12-11T02:01:06;99381.81;;;22.65;26.86
74637;BME280;63141;54.616;39.754;2022-12-11T02:04:12;99387.13;;;22.65;26.55
74637;BME280;63141;54.616;39.754;2022-12-11T02:07:15;99387.13;;;22.65;26.74
74637;BME280;63141;54.616;39.754;2022-12-11T02:10:16;99382.75;;;22.64;26.71
74637;BME280;63141;54.616;39.754;2022-12-11T02:13:56;99375.66;;;22.64;26.76
74637;BME280;63141;54.616;39.754;2022-12-11T02:17:05;99391.66;;;22.63;26.61
74637;BME280;63141;54.616;39.754;2022-12-11T02:33:02;99388.16;;;22.62;26.66
74637;BME280;63141;54.616;39.754;2022-12-11T02:36:04;99394.31;;;22.63;26.68
74637;BME280;63141;54.616;39.754;2022-12-11T02:39:10;99393.44;;;22.62;26.67
74637;BME280;63141;54.616;39.754;2022-12-11T02:42:14;99402.28;;;22.63;26.64
74637;BME280;63141;54.616;39.754;2022-12-11T02:45:18;99403.22;;;22.62;26.76
74637;BME280;63141;54.616;39.754;2022-12-11T02:48:21;99406.81;;;22.61;26.75
74637;BME280;63141;54.616;39.754;2022-12-11T02:51:27;99406.81;;;22.61;26.76
74637;BME280;63141;54.616;39.754;2022-12-11T02:54:31;99406.81;;;22.61;26.75
74637;BME280;63141;54.616;39.754;2022-12-11T02:57:46;99410.22;;;22.63;26.47
74637;BME280;63141;54.616;39.754;2022-12-11T03:00:51;99395.19;;;22.63;26.20
74637;BME280;63141;54.616;39.754;2022-12-11T03:03:54;99403.22;;;22.62;26.55
74637;BME280;63141;54.616;39.754;2022-12-11T03:07:02;99405.03;;;22.61;26.71
74637;BME280;63141;54.616;39.754;2022-12-11T03:10:14;99406.81;;;22.61;26.61
74637;BME280;63141;54.616;39.754;2022-12-11T03:13:20;99410.41;;;22.59;26.69
74637;BME280;63141;54.616;39.754;2022-12-11T03:16:38;99414.75;;;22.61;26.64
74637;BME280;63141;54.616;39.754;2022-12-11T03:23:43;99418.28;;;22.61;26.61
74637;BME280;63141;54.616;39.754;2022-12-11T03:26:55;99422.72;;;22.61;26.71
74637;BME280;63141;54.616;39.754;2022-12-11T03:30:09;99417.41;;;22.61;26.57
74637;BME280;63141;54.616;39.754;2022-12-11T03:33:24;99428.03;;;22.61;26.62
74637;BME280;63141;54.616;39.754;2022-12-11T03:36:33;99435.06;;;22.62;26.68
74637;BME280;63141;54.616;39.754;2022-12-11T03:39:39;99422.72;;;22.61;26.78
74637;BME280;63141;54.616;39.754;2022-12-11T03:42:48;99426.31;;;22.59;26.69
74637;BME280;63141;54.616;39.754;2022-12-11T03:45:52;99424.59;;;22.58;26.89
74637;BME280;63141;54.616;39.754;2022-12-11T03:48:58;99424.59;;;22.58;26.68
74637;BME280;63141;54.616;39.754;2022-12-11T03:52:02;99432.56;;;22.58;26.88
74637;BME280;63141;54.616;39.754;2022-12-11T03:55:05;99432.66;;;22.57;26.81
74637;BME280;63141;54.616;39.754;2022-12-11T03:58:07;99433.50;;;22.57;26.99
74637;BME280;63141;54.616;39.754;2022-12-11T04:01:10;99436.16;;;22.57;26.75
74637;BME280;63141;54.616;39.754;2022-12-11T04:04:17;99432.56;;;22.58;27.02
74637;BME280;63141;54.616;39.754;2022-12-11T04:07:18;99436.09;;;22.59;26.92
74637;BME280;63141;54.616;39.754;2022-12-11T04:10:19;99433.34;;;22.61;27.05
74637;BME280;63141;54.616;39.754;2022-12-11T04:13:21;99439.59;;;22.59;27.17
74637;BME280;63141;54.616;39.754;2022-12-11T04:16:22;99431.63;;;22.59;27.02
74637;BME280;63141;54.616;39.754;2022-12-11T04:19:24;99444.91;;;22.59;26.96
74637;BME280;63141;54.616;39.754;2022-12-11T04:22:44;99449.38;;;22.59;26.98
74637;BME280;63141;54.616;39.754;2022-12-11T04:26:10;99451.06;;;22.60;27.13
74637;BME280;63141;54.616;39.754;2022-12-11T04:29:12;99455.53;;;22.59;27.20
74637;BME280;63141;54.616;39.754;2022-12-11T04:32:14;99463.50;;;22.59;27.15
74637;BME280;63141;54.616;39.754;2022-12-11T04:35:16;99459.09;;;22.58;27.07
74637;BME280;63141;54.616;39.754;2022-12-11T04:38:17;99460.91;;;22.58;27.10
74637;BME280;63141;54.616;39.754;2022-12-11T04:41:19;99455.53;;;22.59;27.15
74637;BME280;63141;54.616;39.754;2022-12-11T04:44:20;99459.09;;;22.58;27.09
74637;BME280;63141;54.616;39.754;2022-12-11T04:47:22;99461.75;;;22.58;27.21
74637;BME280;63141;54.616;39.754;2022-12-11T04:50:23;99467.06;;;22.58;26.99
74637;BME280;63141;54.616;39.754;2022-12-11T04:53:25;99477.69;;;22.58;27.05
74637;BME280;63141;54.616;39.754;2022-12-11T04:56:27;99490.94;;;22.58;27.11
74637;BME280;63141;54.616;39.754;2022-12-11T04:59:28;99490.94;;;22.58;27.18
74637;BME280;63141;54.616;39.754;2022-12-11T05:02:34;99504.22;;;22.58;27.42
74637;BME280;63141;54.616;39.754;2022-12-11T05:05:46;99500.81;;;22.56;27.17
74637;BME280;63141;54.616;39.754;2022-12-11T05:08:48;99502.69;;;22.54;27.31
74637;BME280;63141;54.616;39.754;2022-12-11T05:11:49;99498.28;;;22.53;27.40
74637;BME280;63141;54.616;39.754;2022-12-11T05:14:52;99495.75;;;22.52;27.53
74637;BME280;63141;54.616;39.754;2022-12-11T05:17:53;99504.56;;;22.52;27.44
74637;BME280;63141;54.616;39.754;2022-12-11T05:21:03;99515.16;;;22.52;27.43
74637;BME280;63141;54.616;39.754;2022-12-11T05:24:05;99516.09;;;22.51;27.31
74637;BME280;63141;54.616;39.754;2022-12-11T05:27:07;99525.91;;;22.49;27.37
74637;BME280;63141;54.616;39.754;2022-12-11T05:30:09;99525.91;;;22.49;27.67
74637;BME280;63141;54.616;39.754;2022-12-11T05:33:10;99531.34;;;22.48;27.56
74637;BME280;63141;54.616;39.754;2022-12-11T05:36:14;99536.53;;;22.49;27.65
74637;BME280;63141;54.616;39.754;2022-12-11T05:39:17;99544.66;;;22.46;27.67
74637;BME280;63141;54.616;39.754;2022-12-11T05:42:18;99535.84;;;22.46;27.46
74637;BME280;63141;54.616;39.754;2022-12-11T05:45:19;99531.41;;;22.46;27.66
74637;BME280;63141;54.616;39.754;2022-12-11T05:48:21;99531.41;;;22.46;27.52
74637;BME280;63141;54.616;39.754;2022-12-11T05:51:23;99534.13;;;22.45;27.67
74637;BME280;63141;54.616;39.754;2022-12-11T05:54:24;99539.44;;;22.45;27.62
74637;BME280;63141;54.616;39.754;2022-12-11T05:57:25;99537.66;;;22.45;27.27
74637;BME280;63141;54.616;39.754;2022-12-11T06:00:29;99552.63;;;22.46;27.53
74637;BME280;63141;54.616;39.754;2022-12-11T06:03:31;99543.88;;;22.44;27.70
74637;BME280;63141;54.616;39.754;2022-12-11T06:06:35;99543.97;;;22.43;27.64
74637;BME280;63141;54.616;39.754;2022-12-11T06:09:37;99546.63;;;22.43;27.71
74637;BME280;63141;54.616;39.754;2022-12-11T06:12:38;99555.44;;;22.43;27.80
74637;BME280;63141;54.616;39.754;2022-12-11T06:15:41;99555.50;;;22.42;27.68
74637;BME280;63141;54.616;39.754;2022-12-11T06:18:43;99559.91;;;22.43;27.67
74637;BME280;63141;54.616;39.754;2022-12-11T06:21:45;99564.25;;;22.44;27.87
74637;BME280;63141;54.616;39.754;2022-12-11T06:24:48;99558.94;;;22.44;27.76
74637;BME280;63141;54.616;39.754;2022-12-11T06:27:50;99572.22;;;22.44;28.02
74637;BME280;63141;54.616;39.754;2022-12-11T06:30:51;99566.06;;;22.43;28.20
74637;BME280;63141;54.616;39.754;2022-12-11T06:33:53;99579.31;;;22.43;28.14
74637;BME280;63141;54.616;39.754;2022-12-11T06:36:55;99583.78;;;22.43;28.20
74637;BME280;63141;54.616;39.754;2022-12-11T06:39:56;99584.63;;;22.43;28.21
74637;BME280;63141;54.616;39.754;2022-12-11T06:42:58;99585.56;;;22.42;28.16
74637;BME280;63141;54.616;39.754;2022-12-11T06:46:06;99594.47;;;22.41;28.17
74637;BME280;63141;54.616;39.754;2022-12-11T06:49:07;99594.47;;;22.41;28.27
74637;BME280;63141;54.616;39.754;2022-12-11T06:52:09;99589.16;;;22.41;28.21
74637;BME280;63141;54.616;39.754;2022-12-11T06:55:10;99600.63;;;22.42;28.31
74637;BME280;63141;54.616;39.754;2022-12-11T06:58:12;99600.69;;;22.40;28.12
74637;BME280;63141;54.616;39.754;2022-12-11T07:01:26;99606.78;;;22.42;28.22
74637;BME280;63141;54.616;39.754;2022-12-11T07:04:30;99607.72;;;22.41;28.14
74637;BME280;63141;54.616;39.754;2022-12-11T07:07:32;99618.34;;;22.41;28.17
74637;BME280;63141;54.616;39.754;2022-12-11T07:10:33;99614.84;;;22.41;28.36
74637;BME280;63141;54.616;39.754;2022-12-11T07:13:35;99615.75;;;22.40;28.23
74637;BME280;63141;54.616;39.754;2022-12-11T07:16:36;99616.59;;;22.40;28.28
74637;BME280;63141;54.616;39.754;2022-12-11T07:19:38;99623.66;;;22.41;28.27
74637;BME280;63141;54.616;39.754;2022-12-11T07:22:40;99621.00;;;22.41;28.42
74637;BME280;63141;54.616;39.754;2022-12-11T07:25:41;99630.66;;;22.42;28.54
74637;BME280;63141;54.616;39.754;2022-12-11T07:28:43;99633.25;;;22.44;28.44
74637;BME280;63141;54.616;39.754;2022-12-11T07:31:44;99637.59;;;22.45;28.64
74637;BME280;63141;54.616;39.754;2022-12-11T07:34:47;99644.59;;;22.47;28.89
74637;BME280;63141;54.616;39.754;2022-12-11T07:37:49;99650.66;;;22.49;28.94
74637;BME280;63141;54.616;39.754;2022-12-11T07:40:50;99646.13;;;22.51;29.00
74637;BME280;63141;54.616;39.754;2022-12-11T07:43:52;99650.59;;;22.51;29.25
74637;BME280;63141;54.616;39.754;2022-12-11T07:46:54;99649.72;;;22.50;29.37
74637;BME280;63141;54.616;39.754;2022-12-11T07:49:55;99650.59;;;22.51;29.40
74637;BME280;63141;54.616;39.754;2022-12-11T07:52:57;99649.66;;;22.52;29.50
74637;BME280;63141;54.616;39.754;2022-12-11T07:55:58;99652.31;;;22.52;29.55
74637;BME280;63141;54.616;39.754;2022-12-11T07:59:01;99648.78;;;22.51;29.47
74637;BME280;63141;54.616;39.754;2022-12-11T08:02:03;99645.09;;;22.54;29.63
74637;BME280;63141;54.616;39.754;2022-12-11T08:05:10;99645.09;;;22.54;29.69
74637;BME280;63141;54.616;39.754;2022-12-11T08:08:12;99651.31;;;22.54;29.78
74637;BME280;63141;54.616;39.754;2022-12-11T08:11:14;99653.06;;;22.54;29.67
74637;BME280;63141;54.616;39.754;2022-12-11T08:14:16;99668.09;;;22.55;29.71
74637;BME280;63141;54.616;39.754;2022-12-11T08:17:17;99658.31;;;22.55;29.86
74637;BME280;63141;54.616;39.754;2022-12-11T08:20:19;99656.63;;;22.54;30.25
74637;BME280;63141;54.616;39.754;2022-12-11T08:23:20;99663.63;;;22.55;29.92
74637;BME280;63141;54.616;39.754;2022-12-11T08:26:27;99660.97;;;22.55;30.12
74637;BME280;63141;54.616;39.754;2022-12-11T08:29:29;99659.16;;;22.56;30.03
74637;BME280;63141;54.616;39.754;2022-12-11T08:32:30;99681.28;;;22.56;30.13
74637;BME280;63141;54.616;39.754;2022-12-11T08:35:32;99683.00;;;22.57;30.28
74637;BME280;63141;54.616;39.754;2022-12-11T08:38:34;99672.38;;;22.57;30.26
74637;BME280;63141;54.616;39.754;2022-12-11T08:41:36;99671.53;;;22.57;30.23
74637;BME280;63141;54.616;39.754;2022-12-11T08:44:37;99667.06;;;22.57;30.19
74637;BME280;63141;54.616;39.754;2022-12-11T08:47:38;99668.78;;;22.58;30.36
74637;BME280;63141;54.616;39.754;2022-12-11T08:50:40;99663.41;;;22.60;30.77
74637;BME280;63141;54.616;39.754;2022-12-11T08:53:42;99662.31;;;22.64;31.60
74637;BME280;63141;54.616;39.754;2022-12-11T08:56:44;99666.38;;;22.71;31.61
74637;BME280;63141;54.616;39.754;2022-12-11T08:59:45;99678.19;;;22.83;31.42
74637;BME280;63141;54.616;39.754;2022-12-11T09:02:47;99683.97;;;22.91;31.51
74637;BME280;63141;54.616;39.754;2022-12-11T09:05:53;99679.94;;;23.02;31.36
74637;BME280;63141;54.616;39.754;2022-12-11T09:08:57;99679.47;;;23.11;31.19
74637;BME280;63141;54.616;39.754;2022-12-11T09:11:58;99692.28;;;23.20;31.13
74637;BME280;63141;54.616;39.754;2022-12-11T09:15:02;99693.66;;;23.27;30.99
74637;BME280;63141;54.616;39.754;2022-12-11T09:18:04;99693.38;;;23.33;31.23
74637;BME280;63141;54.616;39.754;2022-12-11T09:21:08;99701.72;;;23.43;30.96
74637;BME280;63141;54.616;39.754;2022-12-11T09:24:11;99705.78;;;23.50;30.77
74637;BME280;63141;54.616;39.754;2022-12-11T09:27:12;99702.72;;;23.58;30.87
74637;BME280;63141;54.616;39.754;2022-12-11T09:30:14;99708.56;;;23.65;30.91
74637;BME280;63141;54.616;39.754;2022-12-11T09:33:15;99702.91;;;23.71;30.89
74637;BME280;63141;54.616;39.754;2022-12-11T09:36:17;99705.66;;;23.69;30.81
74637;BME280;63141;54.616;39.754;2022-12-11T09:39:19;99703.78;;;23.71;30.75
74637;BME280;63141;54.616;39.754;2022-12-11T09:42:29;99701.78;;;23.76;30.69
74637;BME280;63141;54.616;39.754;2022-12-11T09:45:32;99696.28;;;23.79;30.58
74637;BME280;63141;54.616;39.754;2022-12-11T09:48:34;99703.94;;;23.86;30.48
74637;BME280;63141;54.616;39.754;2022-12-11T09:51:48;99703.59;;;23.92;30.21
74637;BME280;63141;54.616;39.754;2022-12-11T09:54:56;99707.78;;;23.96;30.24
74637;BME280;63141;54.616;39.754;2022-12-11T10:01:11;99710.91;;;24.04;30.50
74637;BME280;63141;54.616;39.754;2022-12-11T10:07:51;99709.69;;;24.10;29.87
74637;BME280;63141;54.616;39.754;2022-12-11T10:11:11;99710.41;;;24.13;29.76
74637;BME280;63141;54.616;39.754;2022-12-11T10:14:25;99709.28;;;24.17;29.53
74637;BME280;63141;54.616;39.754;2022-12-11T10:17:31;99717.03;;;24.22;29.60
74637;BME280;63141;54.616;39.754;2022-12-11T10:20:35;99723.13;;;24.24;29.61
74637;BME280;63141;54.616;39.754;2022-12-11T10:23:46;99724.16;;;24.21;29.35
74637;BME280;63141;54.616;39.754;2022-12-11T10:26:55;99728.84;;;24.16;29.46
74637;BME280;63141;54.616;39.754;2022-12-11T10:30:24;99722.94;;;24.11;29.61
74637;BME280;63141;54.616;39.754;2022-12-11T10:33:37;99731.09;;;24.08;29.72
74637;BME280;63141;54.616;39.754;2022-12-11T10:36:42;99731.41;;;24.02;29.57
74637;BME280;63141;54.616;39.754;2022-12-11T10:39:43;99721.72;;;24.01;29.61
74637;BME280;63141;54.616;39.754;2022-12-11T10:42:52;99716.56;;;23.98;29.46
74637;BME280;63141;54.616;39.754;2022-12-11T10:45:54;99737.16;;;23.94;29.51
74637;BME280;63141;54.616;39.754;2022-12-11T10:48:59;99734.63;;;23.91;29.65
74637;BME280;63141;54.616;39.754;2022-12-11T10:52:08;99737.47;;;23.88;29.63
74637;BME280;63141;54.616;39.754;2022-12-11T10:55:43;99741.09;;;23.87;29.51
74637;BME280;63141;54.616;39.754;2022-12-11T10:58:48;99740.38;;;23.83;29.21
74637;BME280;63141;54.616;39.754;2022-12-11T11:01:53;99729.91;;;23.80;30.03
74637;BME280;63141;54.616;39.754;2022-12-11T11:04:58;99744.00;;;23.82;30.14
74637;BME280;63141;54.616;39.754;2022-12-11T11:08:18;99748.28;;;23.85;29.69
74637;BME280;63141;54.616;39.754;2022-12-11T11:11:31;99764.91;;;23.89;29.83
74637;BME280;63141;54.616;39.754;2022-12-11T11:14:33;99765.72;;;23.91;29.79
74637;BME280;63141;54.616;39.754;2022-12-11T11:17:42;99755.00;;;23.92;29.62
74637;BME280;63141;54.616;39.754;2022-12-11T11:20:46;99757.41;;;23.97;29.73
74637;BME280;63141;54.616;39.754;2022-12-11T11:23:49;99755.53;;;23.99;29.89
74637;BME280;63141;54.616;39.754;2022-12-11T11:26:51;99758.97;;;24.01;29.95
74637;BME280;63141;54.616;39.754;2022-12-11T11:29:55;99755.34;;;24.02;29.93
74637;BME280;63141;54.616;39.754;2022-12-11T11:33:13;99758.53;;;24.09;29.78
74637;BME280;63141;54.616;39.754;2022-12-11T11:36:21;99761.13;;;24.10;29.58
74637;BME280;63141;54.616;39.754;2022-12-11T11:39:34;99761.72;;;24.15;29.54
74637;BME280;63141;54.616;39.754;2022-12-11T11:43:04;99754.53;;;24.17;29.48
74637;BME280;63141;54.616;39.754;2022-12-11T11:49:43;99751.09;;;24.15;29.00
74637;BME280;63141;54.616;39.754;2022-12-11T11:52:54;99761.97;;;24.11;29.16
74637;BME280;63141;54.616;39.754;2022-12-11T11:59:15;99760.34;;;24.08;29.21
74637;BME280;63141;54.616;39.754;2022-12-11T12:02:23;99760.34;;;24.08;29.16
74637;BME280;63141;54.616;39.754;2022-12-11T12:05:49;99769.97;;;24.11;29.07
74637;BME280;63141;54.616;39.754;2022-12-11T12:15:53;99772.19;;;24.18;29.28
74637;BME280;63141;54.616;39.754;2022-12-11T12:19:13;99769.47;;;24.20;29.13
74637;BME280;63141;54.616;39.754;2022-12-11T12:25:39;99755.13;;;24.22;29.63
74637;BME280;63141;54.616;39.754;2022-12-11T12:32:11;99760.44;;;24.22;29.66
74637;BME280;63141;54.616;39.754;2022-12-11T12:35:35;99766.72;;;24.21;29.76
74637;BME280;63141;54.616;39.754;2022-12-11T12:38:53;99772.91;;;24.22;29.63
74637;BME280;63141;54.616;39.754;2022-12-11T12:45:29;99761.13;;;24.10;29.41
74637;BME280;63141;54.616;39.754;2022-12-11T12:48:32;99765.75;;;24.07;29.11
74637;BME280;63141;54.616;39.754;2022-12-11T12:51:34;99767.63;;;24.04;29.34
74637;BME280;63141;54.616;39.754;2022-12-11T12:54:40;99767.88;;;24.00;29.19
74637;BME280;63141;54.616;39.754;2022-12-11T12:57:57;99765.22;;;24.00;29.52
74637;BME280;63141;54.616;39.754;2022-12-11T13:01:18;99764.28;;;24.01;29.56
74637;BME280;63141;54.616;39.754;2022-12-11T13:04:54;99778.38;;;24.03;29.18
74637;BME280;63141;54.616;39.754;2022-12-11T13:08:01;99774.75;;;24.04;29.16
74637;BME280;63141;54.616;39.754;2022-12-11T13:11:05;99769.25;;;24.07;29.32
74637;BME280;63141;54.616;39.754;2022-12-11T13:17:24;99770.81;;;24.11;29.18
74637;BME280;63141;54.616;39.754;2022-12-11T13:20:32;99776.91;;;24.13;29.52
74637;BME280;63141;54.616;39.754;2022-12-11T13:23:34;99768.94;;;24.13;29.55
74637;BME280;63141;54.616;39.754;2022-12-11T13:26:36;99765.50;;;24.11;29.66
74637;BME280;63141;54.616;39.754;2022-12-11T13:29:39;99770.81;;;24.11;29.51
74637;BME280;63141;54.616;39.754;2022-12-11T13:32:43;99765.50;;;24.11;29.32
74637;BME280;63141;54.616;39.754;2022-12-11T13:36:18;99773.41;;;24.13;29.31
74637;BME280;63141;54.616;39.754;2022-12-11T13:39:26;99774.25;;;24.13;29.24
74637;BME280;63141;54.616;39.754;2022-12-11T13:42:53;99769.72;;;24.15;29.24
74637;BME280;63141;54.616;39.754;2022-12-11T13:45:58;99757.25;;;24.16;29.19
74637;BME280;63141;54.616;39.754;2022-12-11T13:49:05;99756.34;;;24.17;29.33
74637;BME280;63141;54.616;39.754;2022-12-11T13:52:19;99744.03;;;24.14;29.85
74637;BME280;63141;54.616;39.754;2022-12-11T13:55:24;99745.00;;;24.13;29.89
74637;BME280;63141;54.616;39.754;2022-12-11T13:58:26;99754.69;;;24.14;29.79
74637;BME280;63141;54.616;39.754;2022-12-11T14:01:32;99766.28;;;24.13;30.25
74637;BME280;63141;54.616;39.754;2022-12-11T14:04:36;99753.75;;;24.15;29.96
74637;BME280;63141;54.616;39.754;2022-12-11T14:07:41;99759.06;;;24.15;30.16
74637;BME280;63141;54.616;39.754;2022-12-11T14:10:43;99745.00;;;24.13;30.07
74637;BME280;63141;54.616;39.754;2022-12-11T14:13:44;99738.88;;;24.11;30.17
74637;BME280;63141;54.616;39.754;2022-12-11T14:16:49;99733.56;;;24.11;30.16
74637;BME280;63141;54.616;39.754;2022-12-11T14:19:52;99735.31;;;24.12;30.30
74637;BME280;63141;54.616;39.754;2022-12-11T14:23:21;99737.97;;;24.12;29.96
74637;BME280;63141;54.616;39.754;2022-12-11T14:26:25;99753.16;;;24.10;30.18
74637;BME280;63141;54.616;39.754;2022-12-11T14:32:33;99735.31;;;24.12;29.98
74637;BME280;63141;54.616;39.754;2022-12-11T14:35:39;99729.72;;;24.17;29.76
74637;BME280;63141;54.616;39.754;2022-12-11T14:38:42;99727.91;;;24.17;29.75
74637;BME280;63141;54.616;39.754;2022-12-11T14:41:48;99726.81;;;24.21;29.55
74637;BME280;63141;54.616;39.754;2022-12-11T14:48:22;99721.25;;;24.26;29.21
74637;BME280;63141;54.616;39.754;2022-12-11T14:51:30;99738.06;;;24.27;29.56
74637;BME280;63141;54.616;39.754;2022-12-11T14:54:43;99731.63;;;24.31;29.44
74637;BME280;63141;54.616;39.754;2022-12-11T14:57:48;99727.81;;;24.35;29.46
74637;BME280;63141;54.616;39.754;2022-12-11T15:01:00;99715.16;;;24.40;28.97
74637;BME280;63141;54.616;39.754;2022-12-11T15:07:19;99730.75;;;24.46;28.63
74637;BME280;63141;54.616;39.754;2022-12-11T15:13:53;99731.22;;;24.54;28.47
74637;BME280;63141;54.616;39.754;2022-12-11T15:16:56;99732.25;;;24.52;29.11
74637;BME280;63141;54.616;39.754;2022-12-11T15:20:08;99713.88;;;24.47;29.03
74637;BME280;63141;54.616;39.754;2022-12-11T15:23:13;99711.59;;;24.39;29.31
74637;BME280;63141;54.616;39.754;2022-12-11T15:26:15;99716.31;;;24.34;28.90
74637;BME280;63141;54.616;39.754;2022-12-11T15:32:33;99704.06;;;24.32;29.40
74637;BME280;63141;54.616;39.754;2022-12-11T15:35:36;99698.91;;;24.29;29.90
74637;BME280;63141;54.616;39.754;2022-12-11T15:38:39;99705.94;;;24.30;29.37
74637;BME280;63141;54.616;39.754;2022-12-11T15:41:42;99705.00;;;24.31;29.46
74637;BME280;63141;54.616;39.754;2022-12-11T15:44:43;99692.47;;;24.33;29.47
74637;BME280;63141;54.616;39.754;2022-12-11T15:47:45;99706.53;;;24.35;30.00
74637;BME280;63141;54.616;39.754;2022-12-11T15:50:47;99697.53;;;24.37;29.98
74637;BME280;63141;54.616;39.754;2022-12-11T15:53:49;99700.09;;;24.39;29.81
74637;BME280;63141;54.616;39.754;2022-12-11T15:56:51;99683.09;;;24.41;30.01
74637;BME280;63141;54.616;39.754;2022-12-11T15:59:53;99678.47;;;24.45;30.13
74637;BME280;63141;54.616;39.754;2022-12-11T16:02:56;99678.31;;;24.48;30.15
74637;BME280;63141;54.616;39.754;2022-12-11T16:06:03;99678.16;;;24.51;30.35
74637;BME280;63141;54.616;39.754;2022-12-11T16:09:04;99677.97;;;24.54;30.36
74637;BME280;63141;54.616;39.754;2022-12-11T16:12:06;99675.03;;;24.59;30.59
74637;BME280;63141;54.616;39.754;2022-12-11T16:15:07;99670.41;;;24.62;30.88
74637;BME280;63141;54.616;39.754;2022-12-11T16:18:14;99668.69;;;24.61;30.84
74637;BME280;63141;54.616;39.754;2022-12-11T16:21:16;99661.72;;;24.59;31.25
74637;BME280;63141;54.616;39.754;2022-12-11T16:24:17;99656.22;;;24.62;31.62
74637;BME280;63141;54.616;39.754;2022-12-11T16:27:19;99649.13;;;24.62;32.07
74637;BME280;63141;54.616;39.754;2022-12-11T16:30:21;99645.69;;;24.60;31.61
74637;BME280;63141;54.616;39.754;2022-12-11T16:33:23;99635.88;;;24.61;32.14
74637;BME280;63141;54.616;39.754;2022-12-11T16:36:24;99643.78;;;24.62;32.19
74637;BME280;63141;54.616;39.754;2022-12-11T16:39:26;99657.00;;;24.64;31.76
74637;BME280;63141;54.616;39.754;2022-12-11T16:42:28;99655.94;;;24.66;31.91
74637;BME280;63141;54.616;39.754;2022-12-11T16:45:29;99651.59;;;24.65;31.77
74637;BME280;63141;54.616;39.754;2022-12-11T16:48:31;99647.97;;;24.66;31.60
74637;BME280;63141;54.616;39.754;2022-12-11T16:51:32;99647.03;;;24.67;31.66
74637;BME280;63141;54.616;39.754;2022-12-11T16:54:34;99646.06;;;24.69;31.56
74637;BME280;63141;54.616;39.754;2022-12-11T16:57:36;99642.47;;;24.70;31.87
74637;BME280;63141;54.616;39.754;2022-12-11T17:00:37;99630.38;;;24.64;31.47
74637;BME280;63141;54.616;39.754;2022-12-11T17:03:44;99625.50;;;24.56;31.66
74637;BME280;63141;54.616;39.754;2022-12-11T17:06:45;99628.44;;;24.52;31.75
74637;BME280;63141;54.616;39.754;2022-12-11T17:09:47;99630.56;;;24.45;31.81
74637;BME280;63141;54.616;39.754;2022-12-11T17:12:48;99627.19;;;24.41;31.67
74637;BME280;63141;54.616;39.754;2022-12-11T17:15:49;99628.34;;;24.37;31.71